Time;durP1;ratioP1;P1;durP2;ratioP2;P2;SDS_P1;SDS_P2;PMS_P1;PMS_P2;Temp;Humidity;BMP_temperature;BMP_pressure;BME280_temperature;BME280_humidity;BME280_pressure;Samples;Min_cycle;Max_cycle;Signal;HPM_P1;HPM_P2
2022/04/12 00:01:12;;;;;;;;;0.50;0.50;14.40;99.90;;;;;;5075773;28;10930;-58
2022/04/12 00:03:42;;;;;;;;;0.75;0.75;14.40;99.90;;;;;;5081503;28;10864;-57
2022/04/12 00:06:14;;;;;;;;;0.75;0.75;14.30;99.90;;;;;;5073909;28;11981;-57
2022/04/12 00:08:45;;;;;;;;;2.00;0.00;14.20;99.90;;;;;;5072504;28;10845;-58
2022/04/12 00:11:17;;;;;;;;;0.00;0.00;14.20;99.90;;;;;;5074040;28;11076;-57
2022/04/12 00:13:48;;;;;;;;;0.00;0.00;14.20;99.90;;;;;;5077710;28;10997;-57
2022/04/12 00:16:18;;;;;;;;;0.75;0.75;14.10;99.90;;;;;;5087968;28;11776;-57
2022/04/12 00:19:04;;;;;;;;;0.50;0.50;14.20;99.90;;;;;;5077728;28;11425;-58
2022/04/12 00:21:36;;;;;;;;;0.00;0.00;14.20;99.90;;;;;;5082021;28;11111;-58
2022/04/12 00:24:08;;;;;;;;;2.00;0.25;14.10;99.90;;;;;;5079037;28;11171;-58
2022/04/12 00:26:38;;;;;;;;;1.75;1.75;14.00;99.90;;;;;;5073831;28;11420;-58
2022/04/12 00:29:10;;;;;;;;;0.75;0.75;13.90;99.90;;;;;;5070782;28;11504;-57
2022/04/12 00:31:42;;;;;;;;;0.00;0.00;14.00;99.90;;;;;;5074104;28;11598;-57
2022/04/12 00:34:14;;;;;;;;;0.75;0.75;14.00;99.90;;;;;;5077937;28;11407;-57
2022/04/12 00:36:47;;;;;;;;;0.50;0.50;14.00;99.90;;;;;;5083437;28;11622;-57
2022/04/12 00:39:18;;;;;;;;;1.00;1.00;13.90;99.90;;;;;;5074691;28;11896;-58
2022/04/12 00:41:50;;;;;;;;;1.00;1.00;14.00;99.90;;;;;;5075792;28;11423;-58
2022/04/12 00:44:20;;;;;;;;;1.00;1.00;14.00;99.90;;;;;;5069559;28;11904;-60
2022/04/12 00:46:51;;;;;;;;;0.50;0.50;14.00;99.90;;;;;;5072570;28;11437;-59
2022/04/12 00:49:25;;;;;;;;;3.00;2.00;13.90;99.90;;;;;;5087688;28;11436;-59
2022/04/12 00:51:56;;;;;;;;;1.25;0.50;13.90;99.90;;;;;;5079955;28;11469;-59
2022/04/12 00:54:28;;;;;;;;;1.00;1.00;13.90;99.90;;;;;;5076800;28;11452;-58
2022/04/12 00:57:00;;;;;;;;;1.00;1.00;13.90;99.90;;;;;;5079559;28;11608;-58
2022/04/12 00:59:35;;;;;;;;;1.50;1.50;13.80;99.90;;;;;;5080638;28;11416;-59
2022/04/12 01:02:06;;;;;;;;;1.75;1.00;13.80;99.90;;;;;;5085392;28;11463;-59
2022/04/12 01:04:37;;;;;;;;;2.25;1.00;13.80;99.90;;;;;;5081101;28;12210;-59
2022/04/12 01:07:12;;;;;;;;;1.00;1.00;13.70;99.90;;;;;;5076814;28;11640;-59
2022/04/12 01:09:42;;;;;;;;;1.00;1.00;13.70;99.90;;;;;;5086652;28;11444;-59
2022/04/12 01:12:13;;;;;;;;;0.75;0.75;13.70;99.90;;;;;;5086656;28;11419;-58
2022/04/12 01:14:43;;;;;;;;;1.00;1.00;13.70;99.90;;;;;;5078970;28;11404;-59
2022/04/12 01:17:17;;;;;;;;;1.00;1.00;13.60;99.90;;;;;;5078871;28;11424;-59
2022/04/12 01:19:48;;;;;;;;;1.00;1.00;13.40;99.90;;;;;;5089385;27;11426;-59
2022/04/12 01:22:25;;;;;;;;;1.75;1.75;13.50;99.90;;;;;;5072040;28;11430;-59
2022/04/12 01:24:57;;;;;;;;;0.25;0.25;13.50;99.90;;;;;;5079478;28;11541;-59
2022/04/12 01:27:28;;;;;;;;;1.00;1.00;13.50;99.90;;;;;;5076320;28;11442;-59
2022/04/12 01:29:58;;;;;;;;;0.50;0.50;13.50;99.90;;;;;;5083696;27;11563;-59
2022/04/12 01:32:29;;;;;;;;;1.00;1.00;13.50;99.90;;;;;;5081641;28;11393;-61
2022/04/12 01:35:01;;;;;;;;;2.75;1.25;13.50;99.90;;;;;;5068180;28;11467;-63
2022/04/12 01:37:33;;;;;;;;;3.00;1.75;13.40;99.90;;;;;;5074129;28;12800;-59
2022/04/12 01:40:06;;;;;;;;;0.50;0.50;13.40;99.90;;;;;;5079514;28;11609;-59
2022/04/12 01:42:41;;;;;;;;;2.00;1.75;13.40;99.90;;;;;;5072969;28;11573;-61
2022/04/12 01:45:12;;;;;;;;;2.00;0.50;13.30;99.90;;;;;;5077131;28;11420;-59
2022/04/12 01:47:42;;;;;;;;;0.50;0.50;13.30;99.90;;;;;;5084816;28;11450;-59
2022/04/12 01:50:12;;;;;;;;;0.25;0.25;13.40;99.90;;;;;;5083690;28;11424;-58
2022/04/12 01:52:42;;;;;;;;;2.00;2.00;13.30;99.90;;;;;;5081932;28;11388;-59
2022/04/12 01:55:15;;;;;;;;;2.75;2.00;13.20;99.90;;;;;;5077501;28;11424;-58
2022/04/12 01:57:45;;;;;;;;;2.50;1.75;13.20;99.90;;;;;;5085157;28;11436;-62
2022/04/12 02:00:16;;;;;;;;;1.50;1.50;13.20;99.90;;;;;;5084419;28;12766;-62
2022/04/12 02:02:46;;;;;;;;;2.00;2.00;13.20;99.90;;;;;;5085101;28;11551;-59
2022/04/12 02:05:17;;;;;;;;;1.25;1.25;13.10;99.90;;;;;;5076675;28;11612;-57
2022/04/12 02:07:48;;;;;;;;;2.00;2.00;13.10;99.90;;;;;;5071355;28;11454;-56
2022/04/12 02:10:22;;;;;;;;;1.25;1.25;13.10;99.90;;;;;;5074372;27;11422;-57
2022/04/12 02:12:53;;;;;;;;;2.50;0.75;13.10;99.90;;;;;;5080318;28;12208;-58
2022/04/12 02:15:23;;;;;;;;;2.25;1.50;13.10;99.90;;;;;;5072797;28;11461;-63
2022/04/12 02:17:54;;;;;;;;;1.00;1.00;13.10;99.90;;;;;;5079069;28;12552;-63
2022/04/12 02:20:23;;;;;;;;;1.00;1.00;13.10;99.90;;;;;;5073569;28;11437;-64
2022/04/12 02:22:55;;;;;;;;;2.00;0.00;13.10;99.90;;;;;;5076607;28;11454;-64
2022/04/12 02:25:27;;;;;;;;;1.00;1.00;13.10;99.90;;;;;;5073253;28;12158;-64
2022/04/12 02:27:59;;;;;;;;;1.00;1.00;13.10;99.90;;;;;;5076812;28;11426;-64
2022/04/12 02:30:31;;;;;;;;;1.50;1.00;13.10;99.90;;;;;;5076988;28;11511;-63
2022/04/12 02:33:01;;;;;;;;;3.00;1.25;13.10;99.90;;;;;;5068180;28;11435;-64
2022/04/12 02:35:31;;;;;;;;;1.50;1.50;13.10;99.90;;;;;;5075595;28;11460;-65
2022/04/12 02:38:03;;;;;;;;;2.00;0.00;13.10;99.90;;;;;;5069135;28;11442;-66
2022/04/12 02:40:34;;;;;;;;;0.00;0.00;13.20;99.90;;;;;;5068297;28;11589;-68
2022/04/12 02:43:05;;;;;;;;;0.50;0.50;13.10;99.90;;;;;;5073458;28;11453;-65
2022/04/12 02:45:36;;;;;;;;;1.00;1.00;13.10;99.90;;;;;;5073089;28;11451;-65
2022/04/12 02:48:08;;;;;;;;;0.00;0.00;13.10;99.90;;;;;;5081166;28;11403;-65
2022/04/12 02:50:41;;;;;;;;;2.00;1.00;13.10;99.90;;;;;;5082896;28;11467;-65
2022/04/12 02:53:11;;;;;;;;;2.00;1.00;13.10;99.90;;;;;;5084778;28;11478;-65
2022/04/12 02:55:43;;;;;;;;;0.00;0.00;13.10;99.90;;;;;;5073347;28;11443;-65
2022/04/12 02:58:13;;;;;;;;;1.00;1.00;13.00;99.90;;;;;;5078214;28;11392;-63
2022/04/12 03:00:44;;;;;;;;;0.25;0.25;13.00;99.90;;;;;;5069548;28;11446;-64
2022/04/12 03:03:14;;;;;;;;;0.50;0.50;13.00;99.90;;;;;;5071610;28;11471;-65
2022/04/12 03:05:46;;;;;;;;;0.50;0.50;13.00;99.90;;;;;;5081055;28;11437;-65
2022/04/12 03:08:16;;;;;;;;;1.00;1.00;13.00;99.90;;;;;;5076060;28;11452;-64
2022/04/12 03:10:47;;;;;;;;;1.00;1.00;13.00;99.90;;;;;;5077404;28;11810;-64
2022/04/12 03:13:17;;;;;;;;;0.00;0.00;12.90;99.90;;;;;;5080490;28;11469;-62
2022/04/12 03:15:48;;;;;;;;;0.00;0.00;12.90;99.90;;;;;;5082358;28;11415;-62
2022/04/12 03:18:19;;;;;;;;;1.00;0.00;13.00;99.90;;;;;;5075834;28;11391;-63
2022/04/12 03:20:51;;;;;;;;;0.50;0.00;12.90;99.90;;;;;;5077514;28;11422;-64
2022/04/12 03:23:22;;;;;;;;;2.25;1.00;12.80;99.90;;;;;;5073899;28;11442;-65
2022/04/12 03:25:54;;;;;;;;;3.00;0.00;12.70;99.90;;;;;;5075877;28;11434;-62
2022/04/12 03:28:24;;;;;;;;;0.00;0.00;12.70;99.90;;;;;;5077136;28;11415;-65
2022/04/12 03:30:55;;;;;;;;;1.00;0.00;12.80;99.90;;;;;;5074663;28;11428;-65
2022/04/12 03:33:26;;;;;;;;;0.00;0.00;12.80;99.90;;;;;;5074263;28;11441;-64
2022/04/12 03:35:56;;;;;;;;;0.00;0.00;12.80;99.90;;;;;;5071713;28;11585;-65
2022/04/12 03:38:27;;;;;;;;;0.00;0.00;12.80;99.90;;;;;;5085867;28;11545;-63
2022/04/12 03:40:59;;;;;;;;;0.75;0.75;12.70;99.90;;;;;;5077250;28;12095;-64
2022/04/12 03:43:28;;;;;;;;;0.00;0.00;12.70;99.90;;;;;;5080224;28;11428;-65
2022/04/12 03:45:58;;;;;;;;;1.00;0.00;12.70;99.90;;;;;;5080137;28;11436;-65
2022/04/12 03:48:29;;;;;;;;;3.00;0.00;12.70;99.90;;;;;;5079139;28;11414;-63
2022/04/12 03:51:00;;;;;;;;;3.25;2.25;12.60;99.90;;;;;;5078765;28;11504;-65
2022/04/12 03:53:31;;;;;;;;;67.67;56.00;12.60;99.90;;;;;;5074957;28;11560;-60
2022/04/12 03:56:07;;;;;;;;;15.50;14.00;12.80;99.90;;;;;;5076505;28;8880;-63
2022/04/12 03:58:40;;;;;;;;;0.25;0.25;12.80;99.90;;;;;;5083164;28;11504;-66
2022/04/12 04:01:10;;;;;;;;;0.00;0.00;12.70;99.90;;;;;;5059905;28;11405;-64
2022/04/12 04:03:42;;;;;;;;;0.00;0.00;12.70;99.90;;;;;;5078352;28;11418;-63
2022/04/12 04:06:13;;;;;;;;;0.00;0.00;12.60;99.90;;;;;;5080917;28;11437;-65
2022/04/12 04:08:43;;;;;;;;;0.00;0.00;12.60;99.90;;;;;;5072610;27;11429;-62
2022/04/12 04:11:15;;;;;;;;;0.75;0.75;12.60;99.90;;;;;;5069535;28;11464;-62
2022/04/12 04:13:45;;;;;;;;;0.00;0.00;12.60;99.90;;;;;;5074151;28;11467;-63
2022/04/12 04:16:15;;;;;;;;;2.00;0.25;12.60;99.90;;;;;;5075331;28;11489;-64
2022/04/12 04:18:46;;;;;;;;;0.75;0.75;12.60;99.90;;;;;;5076581;28;11416;-64
2022/04/12 04:21:16;;;;;;;;;0.75;0.75;12.60;99.90;;;;;;5085019;28;11556;-62
2022/04/12 04:23:47;;;;;;;;;1.00;1.00;12.50;99.90;;;;;;5081301;28;11414;-62
2022/04/12 04:26:20;;;;;;;;;0.00;0.00;12.30;99.90;;;;;;5081712;28;11446;-62
2022/04/12 04:28:51;;;;;;;;;0.00;0.00;12.40;99.90;;;;;;5077204;28;11443;-62
2022/04/12 04:31:22;;;;;;;;;0.50;0.50;12.40;99.90;;;;;;5079919;28;11482;-64
2022/04/12 04:33:59;;;;;;;;;1.00;1.00;12.50;99.90;;;;;;5073832;28;11455;-63
2022/04/12 04:36:29;;;;;;;;;2.25;0.75;12.40;99.90;;;;;;5080522;28;12818;-63
2022/04/12 04:39:01;;;;;;;;;0.25;0.25;12.40;99.90;;;;;;5087585;28;11439;-63
2022/04/12 04:41:31;;;;;;;;;0.00;0.00;12.40;99.90;;;;;;5080027;28;11945;-62
2022/04/12 04:44:01;;;;;;;;;0.00;0.00;12.40;99.90;;;;;;5079138;28;11394;-62
2022/04/12 04:46:32;;;;;;;;;0.00;0.00;12.40;99.90;;;;;;5077998;28;11411;-65
2022/04/12 04:49:03;;;;;;;;;0.50;0.50;12.40;99.90;;;;;;5077739;28;11433;-65
2022/04/12 04:51:36;;;;;;;;;0.00;0.00;12.30;99.90;;;;;;5085894;28;11510;-63
2022/04/12 04:54:06;;;;;;;;;0.00;0.00;12.30;99.90;;;;;;5092828;28;11459;-63
2022/04/12 04:56:38;;;;;;;;;0.00;0.00;12.30;99.90;;;;;;5074686;28;11532;-62
2022/04/12 04:59:13;;;;;;;;;0.00;0.00;12.30;99.90;;;;;;5079213;28;11473;-62
2022/04/12 05:01:43;;;;;;;;;0.00;0.00;12.20;99.90;;;;;;5073751;28;11595;-62
2022/04/12 05:04:15;;;;;;;;;0.25;0.25;12.20;99.90;;;;;;5083067;28;11497;-62
2022/04/12 05:06:45;;;;;;;;;1.00;0.00;12.20;99.90;;;;;;5070441;28;12202;-63
2022/04/12 05:09:17;;;;;;;;;0.50;0.50;12.10;99.90;;;;;;5077670;28;11436;-61
2022/04/12 05:11:47;;;;;;;;;0.00;0.00;12.10;99.90;;;;;;5071085;28;11494;-61
2022/04/12 05:14:19;;;;;;;;;0.00;0.00;12.10;99.90;;;;;;5075351;28;11422;-62
2022/04/12 05:16:49;;;;;;;;;0.00;0.00;12.10;99.90;;;;;;5077225;28;11456;-61
2022/04/12 05:19:20;;;;;;;;;0.00;0.00;12.10;99.90;;;;;;5077773;28;11440;-62
2022/04/12 05:21:50;;;;;;;;;0.00;0.00;12.10;99.90;;;;;;5075984;28;11591;-62
2022/04/12 05:24:20;;;;;;;;;0.00;0.00;12.10;99.90;;;;;;5069753;28;12666;-62
2022/04/12 05:26:51;;;;;;;;;2.00;0.50;12.10;99.90;;;;;;5079353;28;11475;-63
2022/04/12 05:29:22;;;;;;;;;0.00;0.00;12.10;99.90;;;;;;5078286;28;11457;-62
2022/04/12 05:31:53;;;;;;;;;0.00;0.00;12.00;99.90;;;;;;5072634;28;11490;-63
2022/04/12 05:34:23;;;;;;;;;0.00;0.00;12.00;99.90;;;;;;5073006;28;11609;-63
2022/04/12 05:36:53;;;;;;;;;1.00;1.00;12.10;99.90;;;;;;5078205;28;12205;-63
2022/04/12 05:39:26;;;;;;;;;0.00;0.00;12.00;99.90;;;;;;5082665;28;11471;-62
2022/04/12 05:42:00;;;;;;;;;0.00;0.00;12.00;99.90;;;;;;5074783;28;12244;-63
2022/04/12 05:44:33;;;;;;;;;0.00;0.00;12.00;99.90;;;;;;5082662;28;11501;-62
2022/04/12 05:47:04;;;;;;;;;1.25;0.75;12.00;99.90;;;;;;5074409;28;11484;-63
2022/04/12 05:49:34;;;;;;;;;0.00;0.00;11.90;99.90;;;;;;5078513;28;11488;-64
2022/04/12 05:52:08;;;;;;;;;0.00;0.00;11.80;99.90;;;;;;5075344;28;11512;-63
2022/04/12 05:54:38;;;;;;;;;0.00;0.00;11.80;99.90;;;;;;5088445;28;11668;-63
2022/04/12 05:57:09;;;;;;;;;0.00;0.00;11.80;99.90;;;;;;5071431;28;12632;-63
2022/04/12 05:59:40;;;;;;;;;0.00;0.00;11.70;99.90;;;;;;5088611;27;11503;-62
2022/04/12 06:02:09;;;;;;;;;0.75;0.00;11.60;99.90;;;;;;5078648;28;11500;-63
2022/04/12 06:04:40;;;;;;;;;0.00;0.00;11.60;99.90;;;;;;5080407;28;11480;-63
2022/04/12 06:07:10;;;;;;;;;0.00;0.00;11.70;99.90;;;;;;5070024;28;11500;-64
2022/04/12 06:09:41;;;;;;;;;0.00;0.00;11.60;99.90;;;;;;5070719;28;11520;-63
2022/04/12 06:12:12;;;;;;;;;0.50;0.00;11.70;99.90;;;;;;5072140;28;11897;-63
2022/04/12 06:14:42;;;;;;;;;0.00;0.00;11.60;99.90;;;;;;5075362;28;11513;-63
2022/04/12 06:17:12;;;;;;;;;0.00;0.00;11.70;99.90;;;;;;5085145;28;11818;-63
2022/04/12 06:19:42;;;;;;;;;0.00;0.00;11.70;99.90;;;;;;5076568;28;11505;-62
2022/04/12 06:22:13;;;;;;;;;1.00;1.00;11.70;99.90;;;;;;5075732;28;11472;-62
2022/04/12 06:24:44;;;;;;;;;0.00;0.00;11.70;99.90;;;;;;5077028;28;11490;-63
2022/04/12 06:27:13;;;;;;;;;0.00;0.00;11.60;99.90;;;;;;5073279;28;11482;-63
2022/04/12 06:29:44;;;;;;;;;0.00;0.00;11.60;99.90;;;;;;5071250;28;11681;-64
2022/04/12 06:32:15;;;;;;;;;0.00;0.00;11.60;99.90;;;;;;5074720;28;11510;-63
2022/04/12 06:34:47;;;;;;;;;0.00;0.00;11.50;99.90;;;;;;5070870;28;11513;-63
2022/04/12 06:37:18;;;;;;;;;2.00;0.50;11.50;99.90;;;;;;5079001;28;11491;-64
2022/04/12 06:39:49;;;;;;;;;0.00;0.00;11.50;99.90;;;;;;5078801;28;11456;-63
2022/04/12 06:42:21;;;;;;;;;0.00;0.00;11.40;99.90;;;;;;5077879;28;11523;-62
2022/04/12 06:44:53;;;;;;;;;0.00;0.00;11.50;99.90;;;;;;5074579;28;11635;-63
2022/04/12 06:47:23;;;;;;;;;0.00;0.00;11.50;99.90;;;;;;5071731;28;11505;-63
2022/04/12 06:49:55;;;;;;;;;0.00;0.00;11.50;99.90;;;;;;5076811;27;11517;-62
2022/04/12 06:52:27;;;;;;;;;0.00;0.00;11.40;99.90;;;;;;5081606;28;11474;-62
2022/04/12 06:54:57;;;;;;;;;0.00;0.00;11.30;99.90;;;;;;5071542;28;11634;-62
2022/04/12 06:57:32;;;;;;;;;0.00;0.00;11.30;99.90;;;;;;5077843;28;11498;-63
2022/04/12 07:00:07;;;;;;;;;0.00;0.00;11.30;99.90;;;;;;5077167;28;12302;-63
2022/04/12 07:02:38;;;;;;;;;0.00;0.00;11.30;99.90;;;;;;5082506;28;11462;-63
2022/04/12 07:05:10;;;;;;;;;0.00;0.00;11.30;99.90;;;;;;5085275;28;11540;-63
2022/04/12 07:07:42;;;;;;;;;0.00;0.00;11.30;99.90;;;;;;5083754;28;11457;-63
2022/04/12 07:10:17;;;;;;;;;0.00;0.00;11.30;99.90;;;;;;5076860;28;11488;-62
2022/04/12 07:12:53;;;;;;;;;0.00;0.00;11.30;99.90;;;;;;5078042;28;11536;-62
2022/04/12 07:15:24;;;;;;;;;0.00;0.00;11.40;99.90;;;;;;5081812;27;11509;-62
2022/04/12 07:17:55;;;;;;;;;0.00;0.00;11.30;99.90;;;;;;5081848;28;11651;-63
2022/04/12 07:20:26;;;;;;;;;0.00;0.00;11.20;99.90;;;;;;5085140;28;11489;-63
2022/04/12 07:22:57;;;;;;;;;0.00;0.00;11.20;99.90;;;;;;5078522;28;11499;-63
2022/04/12 07:25:28;;;;;;;;;0.00;0.00;11.20;99.90;;;;;;5075183;28;12151;-63
2022/04/12 07:28:00;;;;;;;;;0.00;0.00;11.20;99.90;;;;;;5074272;28;11513;-62
2022/04/12 07:30:31;;;;;;;;;0.00;0.00;11.20;99.90;;;;;;5079607;28;11530;-64
2022/04/12 07:33:18;;;;;;;;;0.00;0.00;11.20;99.90;;;;;;5071403;28;11486;-64
2022/04/12 07:35:50;;;;;;;;;0.00;0.00;11.20;99.90;;;;;;5074001;28;11506;-64
2022/04/12 07:38:21;;;;;;;;;0.00;0.00;11.20;99.90;;;;;;5083677;28;12186;-63
2022/04/12 07:40:53;;;;;;;;;0.00;0.00;11.20;99.90;;;;;;5082712;28;11469;-62
2022/04/12 07:43:23;;;;;;;;;0.00;0.00;11.20;99.90;;;;;;5067541;28;11504;-62
2022/04/12 07:45:54;;;;;;;;;0.00;0.00;11.20;99.90;;;;;;5078312;28;11498;-63
2022/04/12 07:48:45;;;;;;;;;0.00;0.00;11.10;99.90;;;;;;5079073;28;11485;-63
2022/04/12 07:51:17;;;;;;;;;0.00;0.00;11.20;99.90;;;;;;5078524;28;12740;-64
2022/04/12 07:53:52;;;;;;;;;0.00;0.00;11.20;99.90;;;;;;5075615;28;12263;-63
2022/04/12 07:56:23;;;;;;;;;0.00;0.00;11.20;99.90;;;;;;5088299;28;11585;-64
2022/04/12 07:58:54;;;;;;;;;0.00;0.00;11.10;99.90;;;;;;5075663;28;11513;-63
2022/04/12 08:01:25;;;;;;;;;0.00;0.00;11.20;99.90;;;;;;5069365;28;11488;-62
2022/04/12 08:03:55;;;;;;;;;0.00;0.00;11.10;99.90;;;;;;5078099;28;12709;-63
2022/04/12 08:06:26;;;;;;;;;0.00;0.00;11.10;99.90;;;;;;5082178;28;11657;-63
2022/04/12 08:08:57;;;;;;;;;0.50;0.50;11.20;99.90;;;;;;5076909;28;11518;-62
2022/04/12 08:11:30;;;;;;;;;0.00;0.00;11.30;99.90;;;;;;5074506;28;11599;-63
2022/04/12 08:14:00;;;;;;;;;0.25;0.25;11.20;99.90;;;;;;5071310;28;11519;-63
2022/04/12 08:16:31;;;;;;;;;0.00;0.00;11.20;99.90;;;;;;5079242;28;12192;-63
2022/04/12 08:19:02;;;;;;;;;0.00;0.00;11.20;99.90;;;;;;5072646;28;11486;-63
2022/04/12 08:21:40;;;;;;;;;0.00;0.00;11.10;99.90;;;;;;5082573;28;11463;-64
2022/04/12 08:24:11;;;;;;;;;0.00;0.00;11.00;99.90;;;;;;5073801;28;12208;-63
2022/04/12 08:26:42;;;;;;;;;0.75;0.75;11.10;99.90;;;;;;5085173;28;11477;-61
2022/04/12 08:29:12;;;;;;;;;0.00;0.00;11.20;99.90;;;;;;5074864;28;12207;-62
2022/04/12 08:31:42;;;;;;;;;0.00;0.00;11.10;99.90;;;;;;5078377;28;11511;-61
2022/04/12 08:34:13;;;;;;;;;0.00;0.00;11.10;99.90;;;;;;5071056;28;11498;-61
2022/04/12 08:36:45;;;;;;;;;0.00;0.00;11.20;99.90;;;;;;5087379;28;11493;-61
2022/04/12 08:39:16;;;;;;;;;0.00;0.00;11.10;99.90;;;;;;5077594;28;11490;-62
2022/04/12 08:41:47;;;;;;;;;0.25;0.25;11.20;99.90;;;;;;5072616;28;11471;-62
2022/04/12 08:44:19;;;;;;;;;0.50;0.50;11.10;99.90;;;;;;5071290;28;11516;-62
2022/04/12 08:46:50;;;;;;;;;0.00;0.00;11.20;99.90;;;;;;5073418;28;10929;-60
2022/04/12 08:49:23;;;;;;;;;0.00;0.00;11.20;99.90;;;;;;5081760;28;11478;-61
2022/04/12 08:51:54;;;;;;;;;0.00;0.00;11.20;99.90;;;;;;5076308;28;11488;-61
2022/04/12 08:54:25;;;;;;;;;0.00;0.00;11.10;99.90;;;;;;5075040;28;12229;-62
2022/04/12 08:56:57;;;;;;;;;0.00;0.00;11.10;99.90;;;;;;5075933;28;11499;-63
2022/04/12 08:59:28;;;;;;;;;1.25;0.00;11.00;99.90;;;;;;5080787;28;11526;-62
2022/04/12 09:01:59;;;;;;;;;0.00;0.00;11.00;99.90;;;;;;5075005;28;11523;-61
2022/04/12 09:04:32;;;;;;;;;0.00;0.00;10.90;99.90;;;;;;5079172;28;11487;-62
2022/04/12 09:07:07;;;;;;;;;0.00;0.00;11.00;99.90;;;;;;5075217;28;11531;-61
2022/04/12 09:09:40;;;;;;;;;0.00;0.00;11.00;99.90;;;;;;5071725;28;11512;-61
2022/04/12 09:12:15;;;;;;;;;0.00;0.00;10.80;99.90;;;;;;5081304;28;11525;-62
2022/04/12 09:14:53;;;;;;;;;1.00;1.00;10.80;99.90;;;;;;5071733;28;11472;-62
2022/04/12 09:17:36;;;;;;;;;0.00;0.00;10.80;99.90;;;;;;5082084;28;12527;-62
2022/04/12 09:20:16;;;;;;;;;0.50;0.50;10.80;99.90;;;;;;5077466;28;11614;-62
2022/04/12 09:22:48;;;;;;;;;0.25;0.25;10.70;99.90;;;;;;5082365;28;11516;-61
2022/04/12 09:25:20;;;;;;;;;0.00;0.00;10.70;99.90;;;;;;5095806;28;11444;-62
2022/04/12 09:27:50;;;;;;;;;0.00;0.00;10.70;99.90;;;;;;5082290;28;12265;-62
2022/04/12 09:30:21;;;;;;;;;1.00;1.00;10.70;99.90;;;;;;5083104;28;11475;-62
2022/04/12 09:32:52;;;;;;;;;0.00;0.00;10.80;99.90;;;;;;5083183;28;11496;-62
2022/04/12 09:35:24;;;;;;;;;1.00;1.00;10.70;99.90;;;;;;5083768;28;11630;-62
2022/04/12 09:37:56;;;;;;;;;1.00;1.00;10.60;99.90;;;;;;5089774;28;11466;-63
2022/04/12 09:40:27;;;;;;;;;0.00;0.00;10.50;99.90;;;;;;5070026;28;12211;-64
2022/04/12 09:42:58;;;;;;;;;0.50;0.00;10.40;99.90;;;;;;5074880;28;11528;-62
2022/04/12 09:45:30;;;;;;;;;0.00;0.00;10.40;99.90;;;;;;5079812;28;11513;-64
2022/04/12 09:48:04;;;;;;;;;1.00;1.00;10.50;99.90;;;;;;5037630;28;11580;-62
2022/04/12 09:51:00;;;;;;;;;1.00;1.00;10.60;99.90;;;;;;5084249;28;11642;-63
2022/04/12 09:53:41;;;;;;;;;0.00;0.00;10.70;99.90;;;;;;5086718;28;11477;-62
2022/04/12 09:56:19;;;;;;;;;0.00;0.00;10.60;99.90;;;;;;5078354;28;11497;-63
2022/04/12 09:58:54;;;;;;;;;1.00;1.00;10.60;99.90;;;;;;5077585;28;11518;-62
2022/04/12 10:01:26;;;;;;;;;2.00;2.00;10.70;99.90;;;;;;5072241;28;12427;-61
2022/04/12 10:04:01;;;;;;;;;1.00;1.00;10.70;99.90;;;;;;5077014;28;11494;-63
2022/04/12 10:06:40;;;;;;;;;2.25;1.00;10.70;99.90;;;;;;5074297;28;11518;-62
2022/04/12 10:09:14;;;;;;;;;1.50;1.50;10.70;99.90;;;;;;5083009;28;11468;-62
2022/04/12 10:11:46;;;;;;;;;1.00;0.25;10.70;99.90;;;;;;5076902;28;11693;-62
2022/04/12 10:14:17;;;;;;;;;1.00;1.00;10.80;99.90;;;;;;5075845;28;11510;-62
2022/04/12 10:16:47;;;;;;;;;1.00;1.00;10.70;99.90;;;;;;5070929;28;11501;-62
2022/04/12 10:19:20;;;;;;;;;1.75;0.75;10.70;99.90;;;;;;5079205;28;11465;-63
2022/04/12 10:21:50;;;;;;;;;4.00;1.00;10.70;99.90;;;;;;5090651;28;11593;-62
2022/04/12 10:24:22;;;;;;;;;1.00;1.00;10.70;99.90;;;;;;5078496;28;11467;-63
2022/04/12 10:26:54;;;;;;;;;2.75;1.00;10.70;99.90;;;;;;5078360;28;11470;-62
2022/04/12 10:29:26;;;;;;;;;1.00;1.00;10.70;99.90;;;;;;5074078;28;11576;-62
2022/04/12 10:32:03;;;;;;;;;0.00;0.00;10.70;99.90;;;;;;5074793;28;11555;-62
2022/04/12 10:35:01;;;;;;;;;1.50;1.50;10.60;99.90;;;;;;5084500;28;11573;-62
2022/04/12 10:37:34;;;;;;;;;0.00;0.00;10.60;99.90;;;;;;5072666;28;11485;-63
2022/04/12 10:40:26;;;;;;;;;1.00;1.00;10.60;99.90;;;;;;5079388;28;11550;-64
2022/04/12 10:43:03;;;;;;;;;0.00;0.00;10.60;99.90;;;;;;5075019;28;11657;-63
2022/04/12 10:45:34;;;;;;;;;1.00;1.00;10.60;99.90;;;;;;5076595;28;11497;-64
2022/04/12 10:48:06;;;;;;;;;0.00;0.00;10.60;99.90;;;;;;5080557;28;12289;-64
2022/04/12 10:50:41;;;;;;;;;0.00;0.00;10.60;99.90;;;;;;5079287;28;11650;-63
2022/04/12 10:53:13;;;;;;;;;1.00;1.00;10.60;99.90;;;;;;5076636;28;11655;-63
2022/04/12 10:55:44;;;;;;;;;1.00;1.00;10.60;99.90;;;;;;5077686;28;11497;-65
2022/04/12 10:58:33;;;;;;;;;1.50;1.50;10.60;99.90;;;;;;5071779;28;11522;-63
2022/04/12 11:01:05;;;;;;;;;1.25;1.25;10.60;99.90;;;;;;5073970;28;11496;-64
2022/04/12 11:03:43;;;;;;;;;1.00;1.00;10.60;99.90;;;;;;5119301;22;11570;-62
2022/04/12 11:06:24;;;;;;;;;0.00;0.00;10.60;99.90;;;;;;5013138;28;11518;-62
2022/04/12 11:09:09;;;;;;;;;1.00;1.00;10.60;99.90;;;;;;5014924;28;11521;-62
2022/04/12 11:11:43;;;;;;;;;2.25;1.00;10.60;99.90;;;;;;5014640;28;11553;-62
2022/04/12 11:14:38;;;;;;;;;0.50;0.50;10.50;99.90;;;;;;5015136;28;11510;-63
2022/04/12 11:17:10;;;;;;;;;0.00;0.00;10.50;99.90;;;;;;5013003;28;11508;-63
2022/04/12 11:19:51;;;;;;;;;0.00;0.00;10.50;99.90;;;;;;5015520;28;11475;-62
2022/04/12 11:22:23;;;;;;;;;1.00;1.00;10.50;99.90;;;;;;5016235;28;11568;-63
2022/04/12 11:25:17;;;;;;;;;0.00;0.00;10.50;99.90;;;;;;5013959;28;11639;-63
2022/04/12 11:27:49;;;;;;;;;1.00;1.00;10.30;99.90;;;;;;5017041;28;11528;-63
2022/04/12 11:30:22;;;;;;;;;2.00;0.50;10.30;99.90;;;;;;5012571;28;11513;-62
2022/04/12 11:32:56;;;;;;;;;0.75;0.75;10.40;99.90;;;;;;5028707;28;12430;-63
2022/04/12 11:35:28;;;;;;;;;1.00;1.00;10.40;99.90;;;;;;5013952;28;11564;-63
2022/04/12 11:37:58;;;;;;;;;1.00;1.00;10.40;99.90;;;;;;5030096;28;11642;-64
2022/04/12 11:40:30;;;;;;;;;3.00;1.25;10.50;99.90;;;;;;4998871;28;11546;-64
2022/04/12 11:43:01;;;;;;;;;1.00;1.00;10.50;99.90;;;;;;5016221;28;12044;-63
2022/04/12 11:45:33;;;;;;;;;4.00;2.00;10.40;99.90;;;;;;5013906;28;11579;-63
2022/04/12 11:48:07;;;;;;;;;1.00;1.00;10.40;99.90;;;;;;5014853;28;11599;-62
2022/04/12 11:50:38;;;;;;;;;3.00;1.00;10.40;99.90;;;;;;5016868;28;13489;-63
2022/04/12 11:53:26;;;;;;;;;1.00;1.00;10.40;99.90;;;;;;5017833;28;11477;-62
2022/04/12 11:56:02;;;;;;;;;0.75;0.75;10.40;99.90;;;;;;5015730;28;11536;-61
2022/04/12 11:58:32;;;;;;;;;1.00;1.00;10.30;99.90;;;;;;5015171;28;11112;-61
2022/04/12 12:01:03;;;;;;;;;0.50;0.50;10.30;99.90;;;;;;5012118;28;11540;-61
2022/04/12 12:03:36;;;;;;;;;0.25;0.25;10.30;99.90;;;;;;5014929;28;11679;-62
2022/04/12 12:06:11;;;;;;;;;2.00;1.00;10.30;99.90;;;;;;5014999;28;11521;-62
2022/04/12 12:08:45;;;;;;;;;1.50;0.00;10.30;99.90;;;;;;5011365;28;11544;-61
2022/04/12 12:11:15;;;;;;;;;1.50;1.50;10.30;99.90;;;;;;5016553;28;11564;-61
2022/04/12 12:13:58;;;;;;;;;2.00;0.75;10.40;99.90;;;;;;5019536;28;11527;-62
2022/04/12 12:16:28;;;;;;;;;0.00;0.00;10.30;99.90;;;;;;5015401;28;11516;-62
2022/04/12 12:19:00;;;;;;;;;1.75;1.75;10.30;99.90;;;;;;5014656;28;11650;-61
2022/04/12 12:21:31;;;;;;;;;1.75;1.00;10.30;99.90;;;;;;4997329;28;11486;-61
2022/04/12 12:24:01;;;;;;;;;2.00;1.00;10.40;99.90;;;;;;5033122;28;11723;-61
2022/04/12 12:26:32;;;;;;;;;1.00;1.00;10.30;99.90;;;;;;5012106;28;12512;-62
2022/04/12 12:29:03;;;;;;;;;1.00;1.00;10.30;99.90;;;;;;5017027;28;12593;-62
2022/04/12 12:31:42;;;;;;;;;0.00;0.00;10.30;99.90;;;;;;5014162;28;11503;-61
2022/04/12 12:34:32;;;;;;;;;2.00;2.00;10.30;99.90;;;;;;5037503;28;12274;-61
2022/04/12 12:37:08;;;;;;;;;1.00;1.00;10.20;99.90;;;;;;5033794;28;12200;-62
2022/04/12 12:39:43;;;;;;;;;2.00;2.00;10.20;99.90;;;;;;5001997;28;11530;-61
2022/04/12 12:42:14;;;;;;;;;2.00;2.00;10.10;99.90;;;;;;5025045;28;11636;-62
2022/04/12 12:44:45;;;;;;;;;1.00;1.00;10.10;99.90;;;;;;5019004;28;11550;-62
2022/04/12 12:47:15;;;;;;;;;1.25;1.00;10.20;99.90;;;;;;5019800;28;11546;-61
2022/04/12 12:49:46;;;;;;;;;0.50;0.50;10.10;99.90;;;;;;5026180;28;11646;-63
2022/04/12 12:52:17;;;;;;;;;0.00;0.00;10.10;99.90;;;;;;5020615;28;11523;-62
2022/04/12 12:54:58;;;;;;;;;2.25;1.00;10.10;99.90;;;;;;5021626;28;11565;-62
2022/04/12 12:57:45;;;;;;;;;0.00;0.00;10.10;99.90;;;;;;5018346;28;12238;-63
2022/04/12 13:00:19;;;;;;;;;0.00;0.00;10.10;99.90;;;;;;5035106;28;11695;-63
2022/04/12 13:03:06;;;;;;;;;1.00;1.00;10.10;99.90;;;;;;5020991;28;11530;-65
2022/04/12 13:05:47;;;;;;;;;1.00;1.00;10.00;99.90;;;;;;5020382;28;11542;-63
2022/04/12 13:08:24;;;;;;;;;2.00;2.00;10.00;99.90;;;;;;5020318;28;11694;-61
2022/04/12 13:11:00;;;;;;;;;1.00;1.00;10.00;99.90;;;;;;5019989;28;11518;-61
2022/04/12 13:13:31;;;;;;;;;1.00;1.00;10.00;99.90;;;;;;5016883;28;11672;-61
2022/04/12 13:16:06;;;;;;;;;0.25;0.25;9.90;99.90;;;;;;5004168;28;11565;-62